sensor_id;sensor_type;location;lat;lon;timestamp;temperature;humidity
6788;DHT22;3431;47.966;10.268;2023-07-08T00:00:11;18.20;78.40
6788;DHT22;3431;47.966;10.268;2023-07-08T00:00:33;19.30;79.70
6788;DHT22;3431;47.966;10.268;2023-07-08T00:00:56;19.30;79.60
6788;DHT22;3431;47.966;10.268;2023-07-08T00:01:18;19.30;79.60
6788;DHT22;3431;47.966;10.268;2023-07-08T00:01:40;19.30;79.50
6788;DHT22;3431;47.966;10.268;2023-07-08T00:02:08;19.20;79.30
6788;DHT22;3431;47.966;10.268;2023-07-08T00:02:30;19.20;79.20
6788;DHT22;3431;47.966;10.268;2023-07-08T00:02:52;19.20;79.30
6788;DHT22;3431;47.966;10.268;2023-07-08T00:03:15;19.20;79.40
6788;DHT22;3431;47.966;10.268;2023-07-08T00:03:37;19.20;79.40
6788;DHT22;3431;47.966;10.268;2023-07-08T00:03:58;19.20;79.40
6788;DHT22;3431;47.966;10.268;2023-07-08T00:04:20;19.20;79.30
6788;DHT22;3431;47.966;10.268;2023-07-08T00:04:42;19.20;80.20
6788;DHT22;3431;47.966;10.268;2023-07-08T00:05:05;19.20;79.90
6788;DHT22;3431;47.966;10.268;2023-07-08T00:05:26;19.20;80.50
6788;DHT22;3431;47.966;10.268;2023-07-08T00:05:52;19.20;80.90
6788;DHT22;3431;47.966;10.268;2023-07-08T00:06:17;19.20;81.30
6788;DHT22;3431;47.966;10.268;2023-07-08T00:06:39;19.20;81.30
6788;DHT22;3431;47.966;10.268;2023-07-08T00:07:02;19.20;81.10
6788;DHT22;3431;47.966;10.268;2023-07-08T00:07:23;19.20;80.90
6788;DHT22;3431;47.966;10.268;2023-07-08T00:07:46;19.20;80.90
6788;DHT22;3431;47.966;10.268;2023-07-08T00:08:08;19.20;80.80
6788;DHT22;3431;47.966;10.268;2023-07-08T00:08:32;19.20;80.60
6788;DHT22;3431;47.966;10.268;2023-07-08T00:08:54;19.20;81.20
6788;DHT22;3431;47.966;10.268;2023-07-08T00:09:16;19.20;80.40
6788;DHT22;3431;47.966;10.268;2023-07-08T00:09:38;19.20;80.30
6788;DHT22;3431;47.966;10.268;2023-07-08T00:09:59;19.20;80.40
6788;DHT22;3431;47.966;10.268;2023-07-08T00:10:24;19.20;80.40
6788;DHT22;3431;47.966;10.268;2023-07-08T00:10:47;19.10;80.30
6788;DHT22;3431;47.966;10.268;2023-07-08T00:11:10;19.10;80.30
6788;DHT22;3431;47.966;10.268;2023-07-08T00:11:32;19.10;80.30
6788;DHT22;3431;47.966;10.268;2023-07-08T00:11:53;19.10;80.30
6788;DHT22;3431;47.966;10.268;2023-07-08T00:12:15;19.10;80.40
6788;DHT22;3431;47.966;10.268;2023-07-08T00:12:37;19.10;80.30
6788;DHT22;3431;47.966;10.268;2023-07-08T00:12:59;19.10;79.70
6788;DHT22;3431;47.966;10.268;2023-07-08T00:13:20;19.10;80.30
6788;DHT22;3431;47.966;10.268;2023-07-08T00:13:42;19.10;80.30
6788;DHT22;3431;47.966;10.268;2023-07-08T00:14:04;19.10;80.40
6788;DHT22;3431;47.966;10.268;2023-07-08T00:14:26;19.00;80.40
6788;DHT22;3431;47.966;10.268;2023-07-08T00:14:48;19.10;81.30
6788;DHT22;3431;47.966;10.268;2023-07-08T00:15:10;19.10;82.30
6788;DHT22;3431;47.966;10.268;2023-07-08T00:15:32;19.00;83.10
6788;DHT22;3431;47.966;10.268;2023-07-08T00:15:55;19.10;83.90
6788;DHT22;3431;47.966;10.268;2023-07-08T00:16:18;19.00;84.20
6788;DHT22;3431;47.966;10.268;2023-07-08T00:16:39;19.10;84.50
6788;DHT22;3431;47.966;10.268;2023-07-08T00:17:04;19.00;84.30
6788;DHT22;3431;47.966;10.268;2023-07-08T00:17:26;19.00;83.90
6788;DHT22;3431;47.966;10.268;2023-07-08T00:17:47;19.00;83.70
6788;DHT22;3431;47.966;10.268;2023-07-08T00:18:12;19.00;83.40
6788;DHT22;3431;47.966;10.268;2023-07-08T00:18:34;19.00;83.30
6788;DHT22;3431;47.966;10.268;2023-07-08T00:18:55;18.90;83.00
6788;DHT22;3431;47.966;10.268;2023-07-08T00:19:17;19.00;82.90
6788;DHT22;3431;47.966;10.268;2023-07-08T00:19:40;18.90;83.00
6788;DHT22;3431;47.966;10.268;2023-07-08T00:20:48;18.90;83.40
6788;DHT22;3431;47.966;10.268;2023-07-08T00:21:10;18.90;83.30
6788;DHT22;3431;47.966;10.268;2023-07-08T00:21:36;18.90;83.20
6788;DHT22;3431;47.966;10.268;2023-07-08T00:21:57;18.90;83.10
6788;DHT22;3431;47.966;10.268;2023-07-08T00:22:20;18.80;82.90
6788;DHT22;3431;47.966;10.268;2023-07-08T00:22:41;18.90;83.10
6788;DHT22;3431;47.966;10.268;2023-07-08T00:23:03;18.90;83.20
6788;DHT22;3431;47.966;10.268;2023-07-08T00:23:25;18.80;83.50
6788;DHT22;3431;47.966;10.268;2023-07-08T00:23:48;18.80;83.90
6788;DHT22;3431;47.966;10.268;2023-07-08T00:24:10;19.40;85.50
6788;DHT22;3431;47.966;10.268;2023-07-08T00:24:31;18.80;84.40
6788;DHT22;3431;47.966;10.268;2023-07-08T00:24:53;18.80;84.60
6788;DHT22;3431;47.966;10.268;2023-07-08T00:25:16;18.80;84.90
6788;DHT22;3431;47.966;10.268;2023-07-08T00:25:38;18.80;84.80
6788;DHT22;3431;47.966;10.268;2023-07-08T00:26:00;18.80;84.30
6788;DHT22;3431;47.966;10.268;2023-07-08T00:26:23;18.80;83.20
6788;DHT22;3431;47.966;10.268;2023-07-08T00:26:45;18.90;83.80
6788;DHT22;3431;47.966;10.268;2023-07-08T00:27:09;18.90;83.60
6788;DHT22;3431;47.966;10.268;2023-07-08T00:27:32;18.90;83.90
6788;DHT22;3431;47.966;10.268;2023-07-08T00:27:53;18.90;84.50
6788;DHT22;3431;47.966;10.268;2023-07-08T00:28:17;18.90;85.00
6788;DHT22;3431;47.966;10.268;2023-07-08T00:28:42;18.90;85.10
6788;DHT22;3431;47.966;10.268;2023-07-08T00:29:08;18.90;85.00
6788;DHT22;3431;47.966;10.268;2023-07-08T00:29:32;18.90;84.70
6788;DHT22;3431;47.966;10.268;2023-07-08T00:29:54;18.90;84.50
6788;DHT22;3431;47.966;10.268;2023-07-08T00:30:20;18.90;84.20
6788;DHT22;3431;47.966;10.268;2023-07-08T00:30:42;18.90;84.10
6788;DHT22;3431;47.966;10.268;2023-07-08T00:31:08;18.90;83.90
6788;DHT22;3431;47.966;10.268;2023-07-08T00:31:30;18.90;83.70
6788;DHT22;3431;47.966;10.268;2023-07-08T00:31:53;18.90;83.70
6788;DHT22;3431;47.966;10.268;2023-07-08T00:32:16;18.90;83.60
6788;DHT22;3431;47.966;10.268;2023-07-08T00:32:37;18.90;83.90
6788;DHT22;3431;47.966;10.268;2023-07-08T00:33:03;18.90;84.30
6788;DHT22;3431;47.966;10.268;2023-07-08T00:33:25;18.90;84.80
6788;DHT22;3431;47.966;10.268;2023-07-08T00:33:47;18.90;84.80
6788;DHT22;3431;47.966;10.268;2023-07-08T00:34:08;18.90;85.50
6788;DHT22;3431;47.966;10.268;2023-07-08T00:34:29;18.90;84.70
6788;DHT22;3431;47.966;10.268;2023-07-08T00:34:51;18.90;84.70
6788;DHT22;3431;47.966;10.268;2023-07-08T00:35:14;18.90;84.50
6788;DHT22;3431;47.966;10.268;2023-07-08T00:35:36;18.90;84.40
6788;DHT22;3431;47.966;10.268;2023-07-08T00:35:58;18.90;84.30
6788;DHT22;3431;47.966;10.268;2023-07-08T00:36:20;18.90;84.20
6788;DHT22;3431;47.966;10.268;2023-07-08T00:36:41;18.90;84.20
6788;DHT22;3431;47.966;10.268;2023-07-08T00:37:04;18.90;84.20
6788;DHT22;3431;47.966;10.268;2023-07-08T00:37:27;18.90;84.20
6788;DHT22;3431;47.966;10.268;2023-07-08T00:37:52;18.90;84.20
6788;DHT22;3431;47.966;10.268;2023-07-08T00:38:17;18.80;84.00
6788;DHT22;3431;47.966;10.268;2023-07-08T00:38:41;18.80;84.10
6788;DHT22;3431;47.966;10.268;2023-07-08T00:39:13;18.80;84.10
6788;DHT22;3431;47.966;10.268;2023-07-08T00:39:35;18.80;84.10
6788;DHT22;3431;47.966;10.268;2023-07-08T00:39:57;18.80;84.10
6788;DHT22;3431;47.966;10.268;2023-07-08T00:40:20;18.80;84.10
6788;DHT22;3431;47.966;10.268;2023-07-08T00:40:50;18.80;84.10
6788;DHT22;3431;47.966;10.268;2023-07-08T00:41:16;18.80;84.20
6788;DHT22;3431;47.966;10.268;2023-07-08T00:41:40;18.70;84.20
6788;DHT22;3431;47.966;10.268;2023-07-08T00:42:10;18.70;84.20
6788;DHT22;3431;47.966;10.268;2023-07-08T00:42:33;18.70;84.20
6788;DHT22;3431;47.966;10.268;2023-07-08T00:42:55;18.70;84.30
6788;DHT22;3431;47.966;10.268;2023-07-08T00:43:17;18.70;84.40
6788;DHT22;3431;47.966;10.268;2023-07-08T00:43:43;18.70;84.40
6788;DHT22;3431;47.966;10.268;2023-07-08T00:44:07;18.70;84.50
6788;DHT22;3431;47.966;10.268;2023-07-08T00:44:32;18.80;84.60
6788;DHT22;3431;47.966;10.268;2023-07-08T00:44:55;18.70;84.70
6788;DHT22;3431;47.966;10.268;2023-07-08T00:45:32;18.70;84.70
6788;DHT22;3431;47.966;10.268;2023-07-08T00:46:03;18.70;84.90
6788;DHT22;3431;47.966;10.268;2023-07-08T00:46:40;18.70;85.70
6788;DHT22;3431;47.966;10.268;2023-07-08T00:47:08;18.70;85.10
6788;DHT22;3431;47.966;10.268;2023-07-08T00:47:31;18.60;85.10
6788;DHT22;3431;47.966;10.268;2023-07-08T00:47:53;18.60;85.10
6788;DHT22;3431;47.966;10.268;2023-07-08T00:48:28;18.60;85.30
6788;DHT22;3431;47.966;10.268;2023-07-08T00:48:52;18.60;85.30
6788;DHT22;3431;47.966;10.268;2023-07-08T00:49:31;18.50;85.40
6788;DHT22;3431;47.966;10.268;2023-07-08T00:49:57;18.50;85.50
6788;DHT22;3431;47.966;10.268;2023-07-08T00:50:22;18.50;85.70
6788;DHT22;3431;47.966;10.268;2023-07-08T00:50:44;18.50;85.90
6788;DHT22;3431;47.966;10.268;2023-07-08T00:51:08;18.50;86.00
6788;DHT22;3431;47.966;10.268;2023-07-08T00:51:31;18.50;86.20
6788;DHT22;3431;47.966;10.268;2023-07-08T00:51:53;18.50;86.30
6788;DHT22;3431;47.966;10.268;2023-07-08T00:52:25;18.40;86.30
6788;DHT22;3431;47.966;10.268;2023-07-08T00:52:48;18.40;86.60
6788;DHT22;3431;47.966;10.268;2023-07-08T00:53:22;18.40;86.70
6788;DHT22;3431;47.966;10.268;2023-07-08T00:53:44;18.40;86.90
6788;DHT22;3431;47.966;10.268;2023-07-08T00:54:10;18.40;87.10
6788;DHT22;3431;47.966;10.268;2023-07-08T00:54:32;18.40;87.20
6788;DHT22;3431;47.966;10.268;2023-07-08T00:54:56;18.30;87.30
6788;DHT22;3431;47.966;10.268;2023-07-08T00:55:19;18.30;87.40
6788;DHT22;3431;47.966;10.268;2023-07-08T00:55:40;18.30;87.50
6788;DHT22;3431;47.966;10.268;2023-07-08T00:56:06;18.30;87.70
6788;DHT22;3431;47.966;10.268;2023-07-08T00:56:33;18.30;87.70
6788;DHT22;3431;47.966;10.268;2023-07-08T00:57:00;18.20;87.80
6788;DHT22;3431;47.966;10.268;2023-07-08T00:57:24;18.20;88.00
6788;DHT22;3431;47.966;10.268;2023-07-08T00:57:47;18.20;88.10
6788;DHT22;3431;47.966;10.268;2023-07-08T00:58:09;18.20;88.10
6788;DHT22;3431;47.966;10.268;2023-07-08T00:58:34;18.20;88.40
6788;DHT22;3431;47.966;10.268;2023-07-08T00:59:01;18.20;88.40
6788;DHT22;3431;47.966;10.268;2023-07-08T00:59:26;18.20;88.60
6788;DHT22;3431;47.966;10.268;2023-07-08T00:59:53;18.20;88.70
6788;DHT22;3431;47.966;10.268;2023-07-08T01:00:17;18.20;88.80
6788;DHT22;3431;47.966;10.268;2023-07-08T01:00:38;18.20;89.00
6788;DHT22;3431;47.966;10.268;2023-07-08T01:01:02;18.20;89.00
6788;DHT22;3431;47.966;10.268;2023-07-08T01:01:26;18.20;89.10
6788;DHT22;3431;47.966;10.268;2023-07-08T01:01:49;18.10;89.10
6788;DHT22;3431;47.966;10.268;2023-07-08T01:02:14;18.10;89.20
6788;DHT22;3431;47.966;10.268;2023-07-08T01:02:41;18.10;89.50
6788;DHT22;3431;47.966;10.268;2023-07-08T01:03:06;18.10;89.60
6788;DHT22;3431;47.966;10.268;2023-07-08T01:03:27;18.10;89.60
6788;DHT22;3431;47.966;10.268;2023-07-08T01:03:52;18.10;89.70
6788;DHT22;3431;47.966;10.268;2023-07-08T01:04:18;18.10;89.80
6788;DHT22;3431;47.966;10.268;2023-07-08T01:04:45;18.00;89.90
6788;DHT22;3431;47.966;10.268;2023-07-08T01:05:11;18.00;90.00
6788;DHT22;3431;47.966;10.268;2023-07-08T01:05:34;18.10;90.10
6788;DHT22;3431;47.966;10.268;2023-07-08T01:05:59;18.00;90.10
6788;DHT22;3431;47.966;10.268;2023-07-08T01:06:23;18.10;90.20
6788;DHT22;3431;47.966;10.268;2023-07-08T01:06:55;18.00;90.20
6788;DHT22;3431;47.966;10.268;2023-07-08T01:07:18;18.00;90.30
6788;DHT22;3431;47.966;10.268;2023-07-08T01:07:44;18.00;90.40
6788;DHT22;3431;47.966;10.268;2023-07-08T01:08:06;18.00;90.50
6788;DHT22;3431;47.966;10.268;2023-07-08T01:08:29;18.00;90.50
6788;DHT22;3431;47.966;10.268;2023-07-08T01:08:52;18.00;90.50
6788;DHT22;3431;47.966;10.268;2023-07-08T01:09:15;18.00;90.50
6788;DHT22;3431;47.966;10.268;2023-07-08T01:09:40;17.90;90.50
6788;DHT22;3431;47.966;10.268;2023-07-08T01:10:06;17.90;90.60
6788;DHT22;3431;47.966;10.268;2023-07-08T01:10:37;17.90;90.70
6788;DHT22;3431;47.966;10.268;2023-07-08T01:11:02;17.90;90.70
6788;DHT22;3431;47.966;10.268;2023-07-08T01:11:25;17.90;90.80
6788;DHT22;3431;47.966;10.268;2023-07-08T01:11:47;17.90;90.80
6788;DHT22;3431;47.966;10.268;2023-07-08T01:12:11;17.90;90.90
6788;DHT22;3431;47.966;10.268;2023-07-08T01:12:37;17.90;90.90
6788;DHT22;3431;47.966;10.268;2023-07-08T01:13:03;17.90;91.00
6788;DHT22;3431;47.966;10.268;2023-07-08T01:13:26;17.80;91.00
6788;DHT22;3431;47.966;10.268;2023-07-08T01:13:50;17.80;91.00
6788;DHT22;3431;47.966;10.268;2023-07-08T01:14:14;17.80;91.10
6788;DHT22;3431;47.966;10.268;2023-07-08T01:14:39;17.80;91.20
6788;DHT22;3431;47.966;10.268;2023-07-08T01:15:05;17.80;91.20
6788;DHT22;3431;47.966;10.268;2023-07-08T01:15:33;17.80;91.30
6788;DHT22;3431;47.966;10.268;2023-07-08T01:15:58;17.80;91.40
6788;DHT22;3431;47.966;10.268;2023-07-08T01:16:21;17.80;91.50
6788;DHT22;3431;47.966;10.268;2023-07-08T01:16:43;17.80;91.60
6788;DHT22;3431;47.966;10.268;2023-07-08T01:17:05;17.80;91.70
6788;DHT22;3431;47.966;10.268;2023-07-08T01:17:26;17.80;91.70
6788;DHT22;3431;47.966;10.268;2023-07-08T01:17:55;17.70;91.70
6788;DHT22;3431;47.966;10.268;2023-07-08T01:18:20;17.70;91.80
6788;DHT22;3431;47.966;10.268;2023-07-08T01:18:42;17.80;91.90
6788;DHT22;3431;47.966;10.268;2023-07-08T01:19:17;17.80;91.90
6788;DHT22;3431;47.966;10.268;2023-07-08T01:19:41;17.80;91.80
6788;DHT22;3431;47.966;10.268;2023-07-08T01:20:05;17.80;91.80
6788;DHT22;3431;47.966;10.268;2023-07-08T01:20:29;17.80;91.90
6788;DHT22;3431;47.966;10.268;2023-07-08T01:20:50;17.80;91.90
6788;DHT22;3431;47.966;10.268;2023-07-08T01:21:30;17.80;91.90
6788;DHT22;3431;47.966;10.268;2023-07-08T01:21:59;17.80;91.90
6788;DHT22;3431;47.966;10.268;2023-07-08T01:22:22;17.80;91.90
6788;DHT22;3431;47.966;10.268;2023-07-08T01:22:44;17.80;91.90
6788;DHT22;3431;47.966;10.268;2023-07-08T01:23:05;17.70;91.90
6788;DHT22;3431;47.966;10.268;2023-07-08T01:23:27;17.80;92.00
6788;DHT22;3431;47.966;10.268;2023-07-08T01:23:48;17.70;92.00
6788;DHT22;3431;47.966;10.268;2023-07-08T01:24:11;17.80;92.00
6788;DHT22;3431;47.966;10.268;2023-07-08T01:24:35;17.80;92.00
6788;DHT22;3431;47.966;10.268;2023-07-08T01:25:00;17.70;92.00
6788;DHT22;3431;47.966;10.268;2023-07-08T01:25:26;17.80;92.10
6788;DHT22;3431;47.966;10.268;2023-07-08T01:25:48;17.80;92.10
6788;DHT22;3431;47.966;10.268;2023-07-08T01:26:10;17.70;92.10
6788;DHT22;3431;47.966;10.268;2023-07-08T01:26:34;17.80;92.20
6788;DHT22;3431;47.966;10.268;2023-07-08T01:26:58;17.80;92.20
6788;DHT22;3431;47.966;10.268;2023-07-08T01:27:21;17.80;92.30
6788;DHT22;3431;47.966;10.268;2023-07-08T01:27:46;17.70;92.20
6788;DHT22;3431;47.966;10.268;2023-07-08T01:28:08;17.80;92.30
6788;DHT22;3431;47.966;10.268;2023-07-08T01:28:30;17.70;92.30
6788;DHT22;3431;47.966;10.268;2023-07-08T01:28:52;17.70;92.40
6788;DHT22;3431;47.966;10.268;2023-07-08T01:29:15;17.70;92.40
6788;DHT22;3431;47.966;10.268;2023-07-08T01:29:37;17.70;92.50
6788;DHT22;3431;47.966;10.268;2023-07-08T01:30:01;17.80;92.50
6788;DHT22;3431;47.966;10.268;2023-07-08T01:30:26;17.80;92.60
6788;DHT22;3431;47.966;10.268;2023-07-08T01:30:48;17.80;92.60
6788;DHT22;3431;47.966;10.268;2023-07-08T01:31:10;17.70;92.60
6788;DHT22;3431;47.966;10.268;2023-07-08T01:31:33;17.70;92.60
6788;DHT22;3431;47.966;10.268;2023-07-08T01:31:55;17.70;92.60
6788;DHT22;3431;47.966;10.268;2023-07-08T01:32:17;17.70;92.60
6788;DHT22;3431;47.966;10.268;2023-07-08T01:32:41;17.70;92.60
6788;DHT22;3431;47.966;10.268;2023-07-08T01:33:07;17.70;92.70
6788;DHT22;3431;47.966;10.268;2023-07-08T01:33:34;17.70;92.80
6788;DHT22;3431;47.966;10.268;2023-07-08T01:33:56;17.70;92.90
6788;DHT22;3431;47.966;10.268;2023-07-08T01:34:19;17.70;93.10
6788;DHT22;3431;47.966;10.268;2023-07-08T01:34:40;17.70;93.20
6788;DHT22;3431;47.966;10.268;2023-07-08T01:35:02;17.70;93.10
6788;DHT22;3431;47.966;10.268;2023-07-08T01:35:25;17.70;93.00
6788;DHT22;3431;47.966;10.268;2023-07-08T01:35:48;17.70;92.90
6788;DHT22;3431;47.966;10.268;2023-07-08T01:36:11;17.80;92.90
6788;DHT22;3431;47.966;10.268;2023-07-08T01:36:38;17.70;92.90
6788;DHT22;3431;47.966;10.268;2023-07-08T01:37:05;17.70;92.90
6788;DHT22;3431;47.966;10.268;2023-07-08T01:37:30;17.80;92.90
6788;DHT22;3431;47.966;10.268;2023-07-08T01:37:56;17.80;92.70
6788;DHT22;3431;47.966;10.268;2023-07-08T01:38:25;17.80;92.90
6788;DHT22;3431;47.966;10.268;2023-07-08T01:39:11;17.80;92.30
6788;DHT22;3431;47.966;10.268;2023-07-08T01:39:33;17.80;92.50
6788;DHT22;3431;47.966;10.268;2023-07-08T01:39:56;17.80;92.50
6788;DHT22;3431;47.966;10.268;2023-07-08T01:40:28;17.80;92.50
6788;DHT22;3431;47.966;10.268;2023-07-08T01:40:52;17.80;92.50
6788;DHT22;3431;47.966;10.268;2023-07-08T01:41:15;17.80;92.50
6788;DHT22;3431;47.966;10.268;2023-07-08T01:41:38;17.80;92.50
6788;DHT22;3431;47.966;10.268;2023-07-08T01:42:00;17.80;92.80
6788;DHT22;3431;47.966;10.268;2023-07-08T01:42:22;17.80;92.70
6788;DHT22;3431;47.966;10.268;2023-07-08T01:42:44;17.80;93.00
6788;DHT22;3431;47.966;10.268;2023-07-08T01:43:06;17.80;93.00
6788;DHT22;3431;47.966;10.268;2023-07-08T01:43:29;17.80;93.10
6788;DHT22;3431;47.966;10.268;2023-07-08T01:43:51;17.80;93.10
6788;DHT22;3431;47.966;10.268;2023-07-08T01:44:21;17.80;93.10
6788;DHT22;3431;47.966;10.268;2023-07-08T01:44:43;17.80;93.40
6788;DHT22;3431;47.966;10.268;2023-07-08T01:45:10;17.80;93.00
6788;DHT22;3431;47.966;10.268;2023-07-08T01:45:35;17.80;93.00
6788;DHT22;3431;47.966;10.268;2023-07-08T01:46:00;17.90;93.40
6788;DHT22;3431;47.966;10.268;2023-07-08T01:46:25;17.90;93.60
6788;DHT22;3431;47.966;10.268;2023-07-08T01:46:47;17.90;93.60
6788;DHT22;3431;47.966;10.268;2023-07-08T01:47:14;17.90;93.70
6788;DHT22;3431;47.966;10.268;2023-07-08T01:47:36;17.90;93.60
6788;DHT22;3431;47.966;10.268;2023-07-08T01:48:00;17.90;93.60
6788;DHT22;3431;47.966;10.268;2023-07-08T01:48:24;17.90;93.60
6788;DHT22;3431;47.966;10.268;2023-07-08T01:48:48;17.90;93.40
6788;DHT22;3431;47.966;10.268;2023-07-08T01:49:10;17.90;93.40
6788;DHT22;3431;47.966;10.268;2023-07-08T01:49:32;17.90;93.40
6788;DHT22;3431;47.966;10.268;2023-07-08T01:49:54;17.90;93.20
6788;DHT22;3431;47.966;10.268;2023-07-08T01:50:16;17.90;93.20
6788;DHT22;3431;47.966;10.268;2023-07-08T01:50:42;17.90;93.10
6788;DHT22;3431;47.966;10.268;2023-07-08T01:51:07;17.90;93.00
6788;DHT22;3431;47.966;10.268;2023-07-08T01:51:28;18.00;93.10
6788;DHT22;3431;47.966;10.268;2023-07-08T01:51:50;18.00;93.10
6788;DHT22;3431;47.966;10.268;2023-07-08T01:52:16;17.90;93.00
6788;DHT22;3431;47.966;10.268;2023-07-08T01:52:40;18.00;93.10
6788;DHT22;3431;47.966;10.268;2023-07-08T01:53:08;18.00;93.10
6788;DHT22;3431;47.966;10.268;2023-07-08T01:53:33;18.00;93.00
6788;DHT22;3431;47.966;10.268;2023-07-08T01:53:55;18.00;93.00
6788;DHT22;3431;47.966;10.268;2023-07-08T01:54:17;18.00;93.00
6788;DHT22;3431;47.966;10.268;2023-07-08T01:54:39;18.00;93.00
6788;DHT22;3431;47.966;10.268;2023-07-08T01:55:00;18.00;93.00
6788;DHT22;3431;47.966;10.268;2023-07-08T01:55:22;18.00;93.30
6788;DHT22;3431;47.966;10.268;2023-07-08T01:55:44;18.00;93.00
6788;DHT22;3431;47.966;10.268;2023-07-08T01:56:08;18.00;93.00
6788;DHT22;3431;47.966;10.268;2023-07-08T01:56:30;18.00;93.10
6788;DHT22;3431;47.966;10.268;2023-07-08T01:56:54;18.00;93.10
6788;DHT22;3431;47.966;10.268;2023-07-08T01:57:17;18.00;93.20
6788;DHT22;3431;47.966;10.268;2023-07-08T01:57:39;17.90;93.20
6788;DHT22;3431;47.966;10.268;2023-07-08T01:58:00;17.90;93.20
6788;DHT22;3431;47.966;10.268;2023-07-08T01:58:22;18.00;93.30
6788;DHT22;3431;47.966;10.268;2023-07-08T01:58:44;17.90;93.30
6788;DHT22;3431;47.966;10.268;2023-07-08T01:59:06;17.90;93.30
6788;DHT22;3431;47.966;10.268;2023-07-08T01:59:27;17.90;93.40
6788;DHT22;3431;47.966;10.268;2023-07-08T01:59:50;17.90;93.40
6788;DHT22;3431;47.966;10.268;2023-07-08T02:00:13;17.90;93.80
6788;DHT22;3431;47.966;10.268;2023-07-08T02:00:37;17.90;93.60
6788;DHT22;3431;47.966;10.268;2023-07-08T02:00:59;17.90;93.70
6788;DHT22;3431;47.966;10.268;2023-07-08T02:01:21;17.90;93.80
6788;DHT22;3431;47.966;10.268;2023-07-08T02:01:43;17.90;93.80
6788;DHT22;3431;47.966;10.268;2023-07-08T02:02:05;17.90;93.70
6788;DHT22;3431;47.966;10.268;2023-07-08T02:02:27;17.90;93.80
6788;DHT22;3431;47.966;10.268;2023-07-08T02:02:49;17.90;93.70
6788;DHT22;3431;47.966;10.268;2023-07-08T02:03:11;17.90;93.80
6788;DHT22;3431;47.966;10.268;2023-07-08T02:03:33;17.90;93.80
6788;DHT22;3431;47.966;10.268;2023-07-08T02:03:55;17.90;93.80
6788;DHT22;3431;47.966;10.268;2023-07-08T02:04:17;17.90;93.90
6788;DHT22;3431;47.966;10.268;2023-07-08T02:04:38;17.90;94.30
6788;DHT22;3431;47.966;10.268;2023-07-08T02:05:00;17.90;94.00
6788;DHT22;3431;47.966;10.268;2023-07-08T02:05:22;17.90;94.00
6788;DHT22;3431;47.966;10.268;2023-07-08T02:05:44;17.90;94.10
6788;DHT22;3431;47.966;10.268;2023-07-08T02:06:08;17.90;94.10
6788;DHT22;3431;47.966;10.268;2023-07-08T02:06:29;17.90;94.20
6788;DHT22;3431;47.966;10.268;2023-07-08T02:07:01;17.80;94.20
6788;DHT22;3431;47.966;10.268;2023-07-08T02:07:24;17.80;94.20
6788;DHT22;3431;47.966;10.268;2023-07-08T02:07:46;17.80;94.30
6788;DHT22;3431;47.966;10.268;2023-07-08T02:08:08;17.80;94.40
6788;DHT22;3431;47.966;10.268;2023-07-08T02:08:30;17.80;94.40
6788;DHT22;3431;47.966;10.268;2023-07-08T02:08:52;17.80;94.40
6788;DHT22;3431;47.966;10.268;2023-07-08T02:09:13;17.80;94.40
6788;DHT22;3431;47.966;10.268;2023-07-08T02:09:35;17.80;94.40
6788;DHT22;3431;47.966;10.268;2023-07-08T02:09:57;17.80;94.30
6788;DHT22;3431;47.966;10.268;2023-07-08T02:10:18;17.80;94.20
6788;DHT22;3431;47.966;10.268;2023-07-08T02:10:41;17.80;94.40
6788;DHT22;3431;47.966;10.268;2023-07-08T02:11:03;17.70;94.40
6788;DHT22;3431;47.966;10.268;2023-07-08T02:11:25;17.70;94.40
6788;DHT22;3431;47.966;10.268;2023-07-08T02:11:47;17.70;94.50
6788;DHT22;3431;47.966;10.268;2023-07-08T02:12:09;17.70;94.50
6788;DHT22;3431;47.966;10.268;2023-07-08T02:12:30;17.70;94.50
6788;DHT22;3431;47.966;10.268;2023-07-08T02:12:52;17.70;94.50
6788;DHT22;3431;47.966;10.268;2023-07-08T02:13:14;17.70;94.90
6788;DHT22;3431;47.966;10.268;2023-07-08T02:13:36;17.70;94.50
6788;DHT22;3431;47.966;10.268;2023-07-08T02:13:58;17.70;94.50
6788;DHT22;3431;47.966;10.268;2023-07-08T02:14:22;17.70;94.50
6788;DHT22;3431;47.966;10.268;2023-07-08T02:14:43;17.70;94.50
6788;DHT22;3431;47.966;10.268;2023-07-08T02:15:07;17.70;94.50
6788;DHT22;3431;47.966;10.268;2023-07-08T02:15:29;17.70;94.40
6788;DHT22;3431;47.966;10.268;2023-07-08T02:15:52;17.70;94.30
6788;DHT22;3431;47.966;10.268;2023-07-08T02:16:14;17.70;94.30
6788;DHT22;3431;47.966;10.268;2023-07-08T02:16:37;17.70;94.30
6788;DHT22;3431;47.966;10.268;2023-07-08T02:16:58;17.70;94.30
6788;DHT22;3431;47.966;10.268;2023-07-08T02:17:20;17.70;94.40
6788;DHT22;3431;47.966;10.268;2023-07-08T02:17:41;17.70;94.60
6788;DHT22;3431;47.966;10.268;2023-07-08T02:18:03;17.70;94.70
6788;DHT22;3431;47.966;10.268;2023-07-08T02:18:26;17.70;94.80
6788;DHT22;3431;47.966;10.268;2023-07-08T02:18:47;17.70;94.90
6788;DHT22;3431;47.966;10.268;2023-07-08T02:19:09;17.70;94.90
6788;DHT22;3431;47.966;10.268;2023-07-08T02:19:31;17.70;94.90
6788;DHT22;3431;47.966;10.268;2023-07-08T02:19:53;17.70;95.00
6788;DHT22;3431;47.966;10.268;2023-07-08T02:20:15;17.70;95.00
6788;DHT22;3431;47.966;10.268;2023-07-08T02:20:37;17.70;95.00
6788;DHT22;3431;47.966;10.268;2023-07-08T02:20:58;17.70;94.90
6788;DHT22;3431;47.966;10.268;2023-07-08T02:21:20;17.70;94.90
6788;DHT22;3431;47.966;10.268;2023-07-08T02:21:43;17.70;94.90
6788;DHT22;3431;47.966;10.268;2023-07-08T02:22:04;17.70;94.90
6788;DHT22;3431;47.966;10.268;2023-07-08T02:22:27;17.70;94.90
6788;DHT22;3431;47.966;10.268;2023-07-08T02:22:49;17.70;95.00
6788;DHT22;3431;47.966;10.268;2023-07-08T02:23:10;17.70;95.00
6788;DHT22;3431;47.966;10.268;2023-07-08T02:23:33;17.70;95.00
6788;DHT22;3431;47.966;10.268;2023-07-08T02:23:54;17.70;95.10
6788;DHT22;3431;47.966;10.268;2023-07-08T02:24:16;17.70;95.10
6788;DHT22;3431;47.966;10.268;2023-07-08T02:24:38;17.70;95.10
6788;DHT22;3431;47.966;10.268;2023-07-08T02:25:00;17.70;95.20
6788;DHT22;3431;47.966;10.268;2023-07-08T02:25:22;17.80;95.20
6788;DHT22;3431;47.966;10.268;2023-07-08T02:25:50;17.80;95.20
6788;DHT22;3431;47.966;10.268;2023-07-08T02:26:12;17.80;95.50
6788;DHT22;3431;47.966;10.268;2023-07-08T02:26:34;18.40;95.80
6788;DHT22;3431;47.966;10.268;2023-07-08T02:26:56;17.80;95.30
6788;DHT22;3431;47.966;10.268;2023-07-08T02:27:18;17.80;95.30
6788;DHT22;3431;47.966;10.268;2023-07-08T02:27:40;17.80;95.30
6788;DHT22;3431;47.966;10.268;2023-07-08T02:28:02;17.80;95.30
6788;DHT22;3431;47.966;10.268;2023-07-08T02:28:24;17.80;95.30
6788;DHT22;3431;47.966;10.268;2023-07-08T02:28:46;17.80;95.50
6788;DHT22;3431;47.966;10.268;2023-07-08T02:29:07;17.80;95.50
6788;DHT22;3431;47.966;10.268;2023-07-08T02:29:29;17.80;95.50
6788;DHT22;3431;47.966;10.268;2023-07-08T02:29:52;17.80;95.50
6788;DHT22;3431;47.966;10.268;2023-07-08T02:30:13;17.80;95.50
6788;DHT22;3431;47.966;10.268;2023-07-08T02:30:36;17.80;95.50
6788;DHT22;3431;47.966;10.268;2023-07-08T02:31:02;17.80;95.50
6788;DHT22;3431;47.966;10.268;2023-07-08T02:31:23;17.80;95.70
6788;DHT22;3431;47.966;10.268;2023-07-08T02:31:46;17.70;95.60